Hotchkiss School, Connecticut
Current Conditions -  °F | °C
As of 4:53 AM on Thursday 18 Dec 2014 (Local Time) from KPOU Reporting Station
Overcast Overcast  
Wind Chill: 31°   Ceiling: 5000
Heat Index: 38°   Visibility: 10mi
Dew Point: 24°   Wind: 10mph
Humidity: 57%   Direction: 250°WSW
Pressure: 29.88"   Gusts: NA
Location:  41.9547°N, 73.4419°W
Report Text: KPOU 180953Z AUTO 25009KT 10SM OVC050 03/M04 A2988 RMK AO2 SLP115 T00331044 TSNO
Loading
Personal Weather Stations






























Interactive Weather Map New forecast layout! Learn more

10-Day Weather Forecast

Advertisements
Track Severe Weather on mobile